Time;durP1;ratioP1;P1;durP2;ratioP2;P2;SDS_P1;SDS_P2;PMS_P1;PMS_P2;Temp;Humidity;BMP_temperature;BMP_pressure;BME280_temperature;BME280_humidity;BME280_pressure;Samples;Min_cycle;Max_cycle;Signal;HPM_P1;HPM_P2
2023/05/25 00:03:39;;;;;;;5.05;2.30;;;18.00;63.70;;;;;;10404383;28;20633;-58
2023/05/25 00:08:39;;;;;;;5.20;2.75;;;18.00;63.60;;;;;;10408979;28;20079;-58
2023/05/25 00:13:40;;;;;;;5.47;2.55;;;18.00;63.60;;;;;;10413049;28;20048;-58
2023/05/25 00:18:42;;;;;;;4.78;2.58;;;18.00;63.50;;;;;;10411848;28;20178;-58
2023/05/25 00:23:42;;;;;;;3.97;2.30;;;18.00;63.50;;;;;;10445129;28;20056;-58
2023/05/25 00:28:43;;;;;;;5.20;3.03;;;18.00;63.40;;;;;;10445362;28;20124;-58
2023/05/25 00:33:44;;;;;;;6.65;2.92;;;18.00;63.50;;;;;;10420778;28;20051;-57
2023/05/25 00:38:45;;;;;;;3.88;2.08;;;17.90;63.40;;;;;;10444071;28;20057;-57
2023/05/25 00:43:46;;;;;;;4.18;2.15;;;17.90;63.40;;;;;;10448390;28;20036;-57
2023/05/25 00:48:46;;;;;;;5.20;2.45;;;17.90;63.30;;;;;;10452223;28;20417;-58
2023/05/25 00:53:47;;;;;;;4.13;2.10;;;17.90;63.30;;;;;;10452299;28;20021;-58
2023/05/25 00:58:53;;;;;;;5.07;2.15;;;17.90;63.30;;;;;;10451937;28;20096;-59
2023/05/25 01:03:56;;;;;;;5.18;2.05;;;17.90;63.30;;;;;;10451513;28;20458;-57
2023/05/25 01:09:02;;;;;;;5.13;2.65;;;17.90;63.20;;;;;;10449757;28;20054;-57
2023/05/25 01:14:03;;;;;;;5.25;2.10;;;17.90;63.10;;;;;;10450085;28;20460;-58
2023/05/25 01:19:04;;;;;;;3.03;1.98;;;17.90;63.10;;;;;;10451034;28;20110;-58
2023/05/25 01:24:20;;;;;;;6.97;2.55;;;17.90;63.10;;;;;;10451113;28;20063;-56
2023/05/25 01:29:25;;;;;;;6.00;2.75;;;17.90;63.10;;;;;;10449316;28;20068;-58
2023/05/25 01:34:27;;;;;;;4.40;2.63;;;17.80;63.00;;;;;;10449831;28;20063;-57
2023/05/25 01:39:28;;;;;;;3.92;2.42;;;17.80;63.00;;;;;;10450308;28;20028;-58
2023/05/25 01:44:28;;;;;;;4.68;2.67;;;17.80;63.00;;;;;;10450380;28;20027;-59
2023/05/25 01:49:55;;;;;;;5.70;2.30;;;17.80;62.90;;;;;;10449633;28;20078;-56
2023/05/25 01:55:06;;;;;;;4.45;1.95;;;17.80;62.90;;;;;;10448399;28;20017;-58
2023/05/25 02:00:10;;;;;;;3.15;2.08;;;17.80;62.80;;;;;;10449754;28;20029;-57
2023/05/25 02:05:12;;;;;;;3.67;2.00;;;17.80;62.70;;;;;;10449347;28;20399;-58
2023/05/25 02:10:13;;;;;;;3.15;1.95;;;17.80;62.70;;;;;;10448920;28;20036;-59
2023/05/25 02:15:15;;;;;;;4.68;2.38;;;17.80;62.60;;;;;;10448031;28;20056;-57
2023/05/25 02:20:16;;;;;;;3.65;1.83;;;17.70;62.60;;;;;;10448782;28;20025;-58
2023/05/25 02:25:16;;;;;;;3.88;2.30;;;17.70;62.50;;;;;;10448504;28;20111;-58
2023/05/25 02:30:17;;;;;;;3.92;2.13;;;17.70;62.50;;;;;;10448311;28;20555;-58
2023/05/25 02:35:18;;;;;;;3.15;1.88;;;17.70;62.50;;;;;;10422868;28;20074;-58
2023/05/25 02:40:18;;;;;;;3.15;1.90;;;17.70;62.40;;;;;;10448083;28;20426;-58
2023/05/25 02:45:19;;;;;;;6.13;2.35;;;17.70;62.40;;;;;;10447328;28;20371;-58
2023/05/25 02:50:20;;;;;;;5.60;2.17;;;17.70;62.40;;;;;;10447324;28;20432;-58
2023/05/25 02:55:21;;;;;;;3.10;2.10;;;17.70;62.40;;;;;;10447503;28;20017;-58
2023/05/25 03:00:22;;;;;;;4.07;1.95;;;17.70;62.40;;;;;;10447068;28;20027;-57
2023/05/25 03:05:23;;;;;;;4.57;2.58;;;17.70;62.40;;;;;;10445952;28;20699;-57
2023/05/25 03:10:23;;;;;;;3.22;1.90;;;17.60;62.30;;;;;;10446539;28;20087;-57
2023/05/25 03:15:24;;;;;;;3.25;2.00;;;17.60;62.20;;;;;;10444937;28;20132;-55
2023/05/25 03:20:28;;;;;;;4.45;2.05;;;17.60;62.20;;;;;;10444225;28;20031;-56
2023/05/25 03:25:29;;;;;;;4.30;2.35;;;17.60;62.20;;;;;;10444955;28;20046;-58
2023/05/25 03:30:30;;;;;;;3.45;2.00;;;17.60;62.20;;;;;;10446473;28;20049;-57
2023/05/25 03:35:31;;;;;;;2.72;1.60;;;17.60;62.20;;;;;;10446124;28;20054;-59
2023/05/25 03:40:31;;;;;;;2.28;1.48;;;17.60;62.20;;;;;;10437260;28;20170;-58
2023/05/25 03:45:32;;;;;;;3.28;1.80;;;17.60;62.20;;;;;;10429304;28;20104;-58
2023/05/25 03:50:33;;;;;;;3.78;2.13;;;17.50;62.10;;;;;;10445096;28;20695;-58
2023/05/25 03:55:34;;;;;;;4.20;1.88;;;17.50;62.00;;;;;;10444260;28;20527;-56
2023/05/25 04:00:35;;;;;;;3.78;1.70;;;17.50;62.00;;;;;;10445401;28;20100;-57
2023/05/25 04:05:37;;;;;;;2.78;1.92;;;17.50;62.00;;;;;;10445022;28;20021;-57
2023/05/25 04:10:38;;;;;;;4.28;2.25;;;17.50;61.90;;;;;;10444787;28;20702;-59
2023/05/25 04:15:38;;;;;;;5.93;3.15;;;17.50;61.90;;;;;;10444721;28;20120;-58
2023/05/25 04:20:39;;;;;;;3.65;1.92;;;17.50;61.90;;;;;;10443172;28;20536;-57
2023/05/25 04:25:41;;;;;;;3.05;1.85;;;17.50;61.90;;;;;;10450029;28;20017;-57
2023/05/25 04:30:41;;;;;;;2.58;1.40;;;17.50;61.90;;;;;;10451329;28;20074;-58
2023/05/25 04:35:42;;;;;;;2.72;1.75;;;17.50;61.80;;;;;;10456521;28;20517;-58
2023/05/25 04:40:45;;;;;;;3.28;2.20;;;17.50;61.90;;;;;;10425613;28;20452;-58
2023/05/25 04:45:46;;;;;;;4.78;1.83;;;17.50;61.90;;;;;;10436825;28;20657;-59
2023/05/25 04:50:46;;;;;;;7.38;1.75;;;17.50;62.80;;;;;;10451374;28;20061;-56
2023/05/25 04:55:50;;;;;;;4.47;2.08;;;17.60;62.90;;;;;;10451195;28;20724;-58
2023/05/25 05:00:51;;;;;;;4.40;2.10;;;17.70;63.10;;;;;;10444861;28;20037;-59
2023/05/25 05:05:51;;;;;;;7.15;2.38;;;17.80;63.10;;;;;;10449767;28;20041;-59
2023/05/25 05:10:52;;;;;;;5.18;2.10;;;18.00;63.80;;;;;;10450258;28;20041;-58
2023/05/25 05:15:53;;;;;;;9.88;2.22;;;18.00;63.70;;;;;;10450345;28;20124;-60
2023/05/25 05:20:53;;;;;;;11.60;2.72;;;18.00;63.80;;;;;;10449926;28;20033;-62
2023/05/25 05:25:54;;;;;;;14.68;4.20;;;17.90;63.70;;;;;;10449995;28;20067;-57
2023/05/25 05:30:55;;;;;;;14.02;3.90;;;17.90;64.10;;;;;;10449127;28;20480;-58
2023/05/25 05:35:56;;;;;;;11.95;3.30;;;17.90;64.20;;;;;;10442211;28;20112;-56
2023/05/25 05:40:56;;;;;;;20.35;3.22;;;17.90;64.50;;;;;;10422621;28;20696;-57
2023/05/25 05:45:57;;;;;;;11.75;2.97;;;17.90;64.00;;;;;;10449367;28;20106;-57
2023/05/25 05:50:58;;;;;;;10.55;2.65;;;17.90;64.30;;;;;;10449278;28;20128;-57
2023/05/25 05:55:59;;;;;;;18.35;3.47;;;17.80;64.30;;;;;;10436728;28;20117;-58
2023/05/25 06:01:00;;;;;;;10.80;2.90;;;17.80;64.30;;;;;;10447163;28;20598;-57
2023/05/25 06:06:01;;;;;;;9.68;2.38;;;17.80;64.60;;;;;;10446285;28;20404;-58
2023/05/25 06:11:02;;;;;;;15.23;3.58;;;17.80;64.50;;;;;;10445720;28;20043;-56
2023/05/25 06:16:02;;;;;;;20.67;4.32;;;17.80;64.40;;;;;;10444004;28;20094;-59
2023/05/25 06:21:04;;;;;;;12.63;3.53;;;17.80;64.50;;;;;;10442012;28;20332;-60
2023/05/25 06:26:06;;;;;;;12.35;4.03;;;17.70;64.20;;;;;;10443950;28;20471;-59
2023/05/25 06:31:06;;;;;;;12.65;4.03;;;17.70;64.50;;;;;;10436997;28;20044;-61
2023/05/25 06:36:08;;;;;;;12.07;3.10;;;17.70;64.30;;;;;;10442184;28;20048;-61
2023/05/25 06:41:11;;;;;;;13.18;3.33;;;17.60;64.30;;;;;;10426217;28;20037;-59
2023/05/25 06:46:16;;;;;;;13.07;3.42;;;17.60;64.30;;;;;;10446694;28;20017;-61
2023/05/25 06:51:17;;;;;;;12.98;3.47;;;17.60;64.40;;;;;;10444171;28;20033;-60
2023/05/25 06:56:18;;;;;;;10.90;4.03;;;17.60;64.50;;;;;;10443537;28;20092;-61
2023/05/25 07:01:19;;;;;;;12.10;3.13;;;17.60;64.70;;;;;;10445035;28;20118;-61
2023/05/25 07:06:20;;;;;;;10.55;3.35;;;17.60;64.60;;;;;;10446340;28;20016;-61
2023/05/25 07:11:22;;;;;;;8.32;3.10;;;17.70;64.80;;;;;;10445465;28;20033;-61
2023/05/25 07:16:24;;;;;;;10.48;2.78;;;17.70;64.80;;;;;;10445640;28;20077;-61
2023/05/25 07:21:25;;;;;;;8.32;2.58;;;17.70;64.80;;;;;;10445696;28;20800;-61
2023/05/25 07:26:27;;;;;;;8.48;2.90;;;17.70;64.80;;;;;;10446076;28;20057;-61
2023/05/25 07:31:28;;;;;;;7.72;3.13;;;17.70;64.80;;;;;;10441066;28;20041;-61
2023/05/25 07:36:28;;;;;;;8.48;2.70;;;17.70;64.70;;;;;;10426298;28;20056;-61
2023/05/25 07:41:29;;;;;;;8.07;2.97;;;17.70;64.80;;;;;;10445872;28;20074;-61
2023/05/25 07:46:30;;;;;;;7.22;2.50;;;17.70;64.80;;;;;;10445832;28;20041;-61
2023/05/25 07:51:32;;;;;;;5.53;2.10;;;17.70;64.80;;;;;;10447272;28;20434;-61
2023/05/25 07:56:32;;;;;;;10.52;2.72;;;17.70;64.80;;;;;;10454208;28;20017;-61
2023/05/25 08:01:34;;;;;;;7.43;2.58;;;17.70;64.70;;;;;;10453249;28;20104;-61
2023/05/25 08:06:35;;;;;;;5.60;2.33;;;17.70;64.80;;;;;;10453611;28;20126;-61
2023/05/25 08:11:36;;;;;;;5.07;2.30;;;17.70;64.70;;;;;;10454020;28;20483;-60
2023/05/25 08:16:36;;;;;;;5.97;2.45;;;17.70;64.80;;;;;;10453147;28;20052;-60
2023/05/25 08:21:39;;;;;;;4.40;2.35;;;17.70;64.80;;;;;;10453636;28;20059;-62
2023/05/25 08:26:40;;;;;;;7.90;3.15;;;17.70;64.80;;;;;;10453035;28;20025;-61
2023/05/25 08:31:42;;;;;;;8.38;3.08;;;17.70;64.80;;;;;;10452957;28;20032;-61
2023/05/25 08:36:43;;;;;;;6.00;2.20;;;17.70;64.80;;;;;;10453318;28;20050;-60
2023/05/25 08:41:44;;;;;;;4.47;2.15;;;17.70;64.80;;;;;;10453115;28;20075;-61
2023/05/25 08:46:48;;;;;;;5.20;2.40;;;17.70;65.40;;;;;;10452339;28;20041;-61
2023/05/25 08:51:52;;;;;;;4.50;2.40;;;17.70;64.80;;;;;;10452193;28;20037;-61
2023/05/25 08:57:00;;;;;;;4.43;1.92;;;17.80;64.90;;;;;;10418294;28;20052;-61
2023/05/25 09:02:58;;;;;;;5.28;2.30;;;17.80;64.70;;;;;;10443027;28;20108;-60
2023/05/25 09:07:59;;;;;;;4.15;1.80;;;17.80;64.70;;;;;;10448930;28;20083;-61
2023/05/25 09:13:01;;;;;;;3.90;2.42;;;17.80;64.70;;;;;;10449305;28;20025;-61
2023/05/25 09:18:02;;;;;;;5.85;2.25;;;17.80;64.70;;;;;;10449838;28;20194;-61
2023/05/25 09:23:04;;;;;;;4.32;2.80;;;17.80;64.40;;;;;;10450400;28;20080;-61
2023/05/25 09:28:08;;;;;;;4.22;2.10;;;17.80;64.60;;;;;;10432159;28;20029;-61
2023/05/25 09:33:13;;;;;;;5.38;2.17;;;17.80;64.50;;;;;;10430910;28;20036;-62
2023/05/25 09:38:17;;;;;;;4.47;1.73;;;17.80;64.50;;;;;;10462504;28;20487;-59
2023/05/25 09:43:18;;;;;;;3.55;1.88;;;17.90;64.50;;;;;;10419917;28;20025;-60
2023/05/25 09:48:20;;;;;;;6.90;2.80;;;17.90;64.50;;;;;;10447380;28;20025;-60
2023/05/25 09:53:21;;;;;;;4.22;2.28;;;17.80;64.40;;;;;;10446881;28;20107;-59
2023/05/25 09:58:23;;;;;;;6.10;2.13;;;17.90;64.40;;;;;;10419380;28;20028;-60
2023/05/25 10:03:24;;;;;;;6.10;2.45;;;17.90;64.50;;;;;;10447214;28;20023;-60
2023/05/25 10:08:26;;;;;;;5.60;2.28;;;17.90;64.50;;;;;;10445238;28;20060;-59
2023/05/25 10:13:29;;;;;;;6.22;4.00;;;17.90;65.00;;;;;;10428652;28;20443;-60
2023/05/25 10:18:34;;;;;;;3.90;2.00;;;17.90;64.30;;;;;;10444980;28;20099;-60
2023/05/25 10:23:44;;;;;;;4.10;2.10;;;17.90;64.50;;;;;;10444845;28;20108;-60
2023/05/25 10:28:46;;;;;;;;;;;18.00;64.50;;;;;;10445368;28;20033;-60
2023/05/25 10:33:47;;;;;;;3.88;1.88;;;18.00;64.30;;;;;;10444776;28;19901;-59
2023/05/25 10:38:50;;;;;;;4.45;2.75;;;18.00;64.40;;;;;;10444785;28;20017;-61
2023/05/25 10:43:52;;;;;;;4.38;2.33;;;17.90;64.40;;;;;;10446391;28;20056;-60
2023/05/25 10:48:59;;;;;;;5.63;2.45;;;17.90;64.50;;;;;;10445535;28;20037;-60
2023/05/25 10:54:00;;;;;;;5.30;3.03;;;17.90;64.50;;;;;;10445103;28;20021;-60
2023/05/25 10:59:01;;;;;;;8.75;3.17;;;17.90;64.40;;;;;;10444921;28;20025;-60
2023/05/25 11:04:22;;;;;;;2.95;1.70;;;17.90;64.50;;;;;;10444724;28;20372;-59
2023/05/25 11:09:25;;;;;;;5.35;2.40;;;17.90;64.50;;;;;;10443608;28;20041;-60
2023/05/25 11:14:29;;;;;;;5.72;2.55;;;17.90;64.50;;;;;;10443794;28;20611;-60
2023/05/25 11:20:19;;;;;;;3.90;2.13;;;17.90;64.50;;;;;;10444166;28;20028;-59
2023/05/25 11:25:41;;;;;;;3.90;2.58;;;17.90;64.70;;;;;;10443838;28;20036;-60
2023/05/25 11:30:42;;;;;;;3.92;2.30;;;18.00;64.60;;;;;;10444484;28;20028;-61
2023/05/25 11:35:44;;;;;;;4.95;2.03;;;18.00;64.60;;;;;;10443671;28;20111;-60
2023/05/25 11:40:44;;;;;;;3.42;2.17;;;18.00;64.50;;;;;;10444376;28;20095;-60
2023/05/25 11:45:55;;;;;;;4.00;1.73;;;18.00;64.40;;;;;;10444644;28;20057;-60
2023/05/25 11:51:05;;;;;;;3.42;1.63;;;18.00;64.40;;;;;;10443717;28;20053;-60
2023/05/25 11:56:06;;;;;;;2.95;1.58;;;18.00;65.00;;;;;;10443642;28;20468;-60
2023/05/25 12:01:21;;;;;;;7.68;2.33;;;18.00;64.30;;;;;;10425530;28;20017;-60
2023/05/25 12:06:27;;;;;;;4.05;1.85;;;18.00;64.30;;;;;;10443899;28;20025;-60
2023/05/25 12:11:32;;;;;;;3.88;2.22;;;18.00;64.20;;;;;;10442806;28;20036;-60
2023/05/25 12:16:37;;;;;;;4.78;2.13;;;18.00;64.10;;;;;;10443228;28;20053;-60
2023/05/25 12:21:40;;;;;;;3.70;2.20;;;18.00;64.70;;;;;;10442003;28;20028;-60
2023/05/25 12:26:57;;;;;;;3.10;1.83;;;18.10;64.20;;;;;;10441265;28;20104;-60
2023/05/25 12:32:03;;;;;;;5.82;2.60;;;18.00;64.10;;;;;;10442747;28;20116;-61
2023/05/25 12:37:04;;;;;;;4.22;1.75;;;18.00;64.10;;;;;;10444823;28;20009;-60
2023/05/25 12:42:15;;;;;;;4.00;1.70;;;18.10;64.20;;;;;;10450432;28;20371;-59
2023/05/25 12:47:18;;;;;;;5.43;2.25;;;18.10;64.10;;;;;;10450110;28;20021;-59
2023/05/25 12:52:41;;;;;;;4.57;2.42;;;18.10;64.10;;;;;;10450552;28;20020;-59
2023/05/25 12:57:42;;;;;;;5.95;2.45;;;18.10;64.00;;;;;;10448771;28;20032;-60
2023/05/25 13:02:46;;;;;;;4.18;2.15;;;18.10;64.10;;;;;;10449805;28;20533;-60
2023/05/25 13:07:47;;;;;;;3.35;1.85;;;18.10;64.00;;;;;;10448386;28;20124;-60
2023/05/25 13:12:49;;;;;;;5.28;2.15;;;18.10;64.10;;;;;;10449065;28;20464;-60
2023/05/25 13:17:52;;;;;;;3.13;1.90;;;18.10;64.00;;;;;;10447665;28;20436;-60
2023/05/25 13:22:54;;;;;;;4.10;2.20;;;18.10;64.00;;;;;;10449035;28;20179;-60
2023/05/25 13:27:56;;;;;;;4.03;2.35;;;18.10;64.10;;;;;;10448605;28;20082;-59
2023/05/25 13:32:57;;;;;;;4.05;2.65;;;18.20;64.20;;;;;;10448633;28;20376;-59
2023/05/25 13:37:58;;;;;;;3.72;2.40;;;18.20;70.60;;;;;;10448831;28;20112;-60
2023/05/25 13:42:58;;;;;;;3.05;2.28;;;18.40;69.30;;;;;;10448246;28;20053;-58
2023/05/25 13:47:59;;;;;;;3.97;1.80;;;18.40;68.50;;;;;;10447513;28;20429;-61
2023/05/25 13:53:00;;;;;;;6.38;2.42;;;18.40;68.00;;;;;;10447073;28;20092;-60
2023/05/25 13:58:00;;;;;;;3.17;1.70;;;18.50;67.90;;;;;;10447540;28;20158;-59
2023/05/25 14:03:01;;;;;;;3.13;1.88;;;18.50;67.50;;;;;;10447244;28;20108;-58
2023/05/25 14:08:03;;;;;;;3.40;2.30;;;18.50;67.40;;;;;;10447141;28;20043;-59
2023/05/25 14:13:04;;;;;;;3.33;1.88;;;18.50;67.30;;;;;;10445964;28;20099;-60
2023/05/25 14:18:04;;;;;;;5.22;2.17;;;18.50;67.10;;;;;;10446369;28;20097;-60
2023/05/25 14:23:05;;;;;;;4.05;1.98;;;18.50;67.10;;;;;;10446993;28;20053;-59
2023/05/25 14:28:06;;;;;;;4.53;2.25;;;18.40;67.10;;;;;;10445091;28;20032;-60
2023/05/25 14:33:07;;;;;;;3.85;2.20;;;18.40;67.10;;;;;;10445689;28;20087;-59
2023/05/25 14:38:08;;;;;;;4.57;1.77;;;18.40;67.00;;;;;;10446022;28;20116;-59
2023/05/25 14:43:08;;;;;;;5.13;2.45;;;18.40;66.80;;;;;;10445772;28;20025;-59
2023/05/25 14:48:09;;;;;;;4.38;2.35;;;18.40;66.70;;;;;;10444628;28;20023;-60
2023/05/25 14:53:10;;;;;;;4.97;2.60;;;18.40;66.70;;;;;;10445856;28;20056;-60
2023/05/25 14:58:11;;;;;;;5.07;2.30;;;18.40;66.40;;;;;;10443963;28;20350;-58
2023/05/25 15:03:12;;;;;;;5.78;2.05;;;18.40;66.20;;;;;;10444694;28;20121;-59
2023/05/25 15:08:12;;;;;;;4.78;2.50;;;18.40;66.40;;;;;;10403993;28;20034;-60
2023/05/25 15:13:13;;;;;;;3.90;2.75;;;18.40;66.10;;;;;;10403594;28;20053;-60
2023/05/25 15:18:14;;;;;;;4.07;2.30;;;18.40;65.90;;;;;;10406897;28;20147;-60
2023/05/25 15:23:15;;;;;;;4.82;2.15;;;18.40;65.70;;;;;;10444183;28;20734;-59
2023/05/25 15:28:16;;;;;;;3.42;2.00;;;18.40;66.00;;;;;;10444173;28;20093;-61
2023/05/25 15:33:16;;;;;;;4.85;2.42;;;18.30;65.90;;;;;;10443008;28;20028;-60
2023/05/25 15:38:17;;;;;;;5.45;2.55;;;18.40;66.10;;;;;;10444212;28;20035;-59
2023/05/25 15:43:17;;;;;;;5.90;2.33;;;18.40;65.90;;;;;;10444038;28;20067;-60
2023/05/25 15:48:18;;;;;;;5.15;2.42;;;18.40;65.80;;;;;;10443961;28;20701;-59
2023/05/25 15:53:19;;;;;;;3.88;2.10;;;18.40;65.80;;;;;;10443618;28;20113;-60
2023/05/25 15:58:19;;;;;;;4.00;2.17;;;18.40;65.70;;;;;;10443909;28;20383;-60
2023/05/25 16:03:20;;;;;;;5.28;2.40;;;18.40;65.70;;;;;;10443615;28;20029;-58
2023/05/25 16:08:21;;;;;;;6.82;2.25;;;18.40;65.60;;;;;;10442901;28;20178;-60
2023/05/25 16:13:21;;;;;;;8.25;2.28;;;18.40;65.40;;;;;;10448718;28;20083;-60
2023/05/25 16:18:22;;;;;;;13.30;4.47;;;18.50;64.90;;;;;;10441425;28;20051;-58
2023/05/25 16:23:23;;;;;;;14.30;5.30;;;18.70;64.50;;;;;;10453225;28;20048;-60
2023/05/25 16:28:25;;;;;;;18.98;5.80;;;19.10;65.20;;;;;;10453688;28;20061;-60
2023/05/25 16:33:25;;;;;;;20.13;5.88;;;19.30;64.80;;;;;;10453266;28;20021;-59
2023/05/25 16:38:26;;;;;;;30.63;6.22;;;19.30;65.30;;;;;;10453820;28;20090;-60
2023/05/25 16:43:26;;;;;;;21.00;5.38;;;19.20;65.80;;;;;;10452706;28;20045;-61
2023/05/25 16:48:30;;;;;;;19.63;5.75;;;19.30;65.50;;;;;;10414292;28;20068;-64
2023/05/25 16:53:30;;;;;;;19.13;4.53;;;19.40;65.60;;;;;;10411019;28;20022;-62
2023/05/25 16:58:31;;;;;;;26.20;6.15;;;19.30;65.40;;;;;;10410857;28;20104;-64
2023/05/25 17:03:32;;;;;;;32.20;7.13;;;19.20;66.00;;;;;;10409786;28;20045;-60
2023/05/25 17:08:35;;;;;;;31.85;8.10;;;19.20;66.00;;;;;;10410545;28;20120;-62
2023/05/25 17:13:35;;;;;;;26.88;7.40;;;19.10;66.00;;;;;;10410403;28;20037;-60
2023/05/25 17:18:36;;;;;;;35.53;7.47;;;19.10;66.00;;;;;;10417194;28;20544;-62
2023/05/25 17:23:37;;;;;;;32.05;8.52;;;19.00;66.00;;;;;;10450433;28;20116;-62
2023/05/25 17:28:38;;;;;;;29.60;6.80;;;18.90;65.90;;;;;;10428590;28;20026;-62
2023/05/25 17:33:38;;;;;;;26.85;6.72;;;18.90;66.00;;;;;;10419215;28;20064;-62
2023/05/25 17:38:39;;;;;;;22.67;5.50;;;18.80;65.90;;;;;;10450764;28;20104;-63
2023/05/25 17:43:40;;;;;;;25.13;6.82;;;18.80;65.80;;;;;;10448071;28;20095;-60
2023/05/25 17:48:41;;;;;;;21.33;6.65;;;18.80;65.80;;;;;;10446294;28;20025;-61
2023/05/25 17:53:41;;;;;;;20.85;6.15;;;18.80;65.90;;;;;;10445107;28;20113;-61
2023/05/25 17:58:46;;;;;;;20.48;6.28;;;18.80;65.90;;;;;;10443953;28;20077;-60
2023/05/25 18:03:49;;;;;;;18.95;5.53;;;18.80;65.70;;;;;;10449586;28;20027;-61
2023/05/25 18:08:50;;;;;;;26.05;7.55;;;18.80;65.90;;;;;;10448795;28;20423;-57
2023/05/25 18:13:51;;;;;;;15.98;4.95;;;18.70;65.80;;;;;;10444151;28;20028;-60
2023/05/25 18:18:51;;;;;;;19.50;5.88;;;18.70;65.90;;;;;;10432034;28;20569;-61
2023/05/25 18:23:52;;;;;;;20.23;6.28;;;18.60;65.80;;;;;;10449131;28;20060;-59
2023/05/25 18:28:53;;;;;;;17.73;7.13;;;18.60;65.70;;;;;;10445152;28;20124;-59
2023/05/25 18:33:53;;;;;;;15.38;5.38;;;18.60;65.50;;;;;;10448718;28;20064;-61
2023/05/25 18:38:54;;;;;;;13.30;4.57;;;18.60;66.50;;;;;;10447104;28;20151;-60
2023/05/25 18:43:55;;;;;;;14.57;4.97;;;18.70;65.30;;;;;;10447007;28;20615;-60
2023/05/25 18:48:55;;;;;;;11.82;4.57;;;18.90;65.40;;;;;;10444259;28;20121;-61
2023/05/25 18:53:57;;;;;;;14.50;5.05;;;18.80;65.50;;;;;;10406939;28;20110;-59
2023/05/25 18:58:58;;;;;;;13.90;4.07;;;18.80;65.30;;;;;;10421446;28;20029;-60
2023/05/25 19:03:58;;;;;;;16.33;4.97;;;18.80;65.70;;;;;;10443434;28;20045;-59
2023/05/25 19:08:59;;;;;;;11.10;4.55;;;18.70;65.40;;;;;;10419852;28;20121;-61
2023/05/25 19:14:00;;;;;;;12.57;4.53;;;18.70;65.60;;;;;;10435706;28;20395;-61
2023/05/25 19:19:01;;;;;;;14.02;4.47;;;18.60;65.70;;;;;;10445069;28;20044;-60
2023/05/25 19:24:02;;;;;;;12.60;4.70;;;18.70;65.60;;;;;;10446344;28;20017;-61
2023/05/25 19:29:03;;;;;;;16.17;5.43;;;18.70;65.50;;;;;;10427989;28;20032;-61
2023/05/25 19:34:03;;;;;;;13.52;4.70;;;18.70;65.70;;;;;;10444905;28;20036;-60
2023/05/25 19:39:04;;;;;;;13.13;4.55;;;18.70;65.60;;;;;;10435940;28;20029;-61
2023/05/25 19:44:05;;;;;;;15.80;5.18;;;18.60;65.70;;;;;;10443971;28;20103;-61
2023/05/25 19:49:06;;;;;;;8.45;3.83;;;18.60;65.50;;;;;;10449585;28;20064;-61
2023/05/25 19:54:07;;;;;;;12.93;4.88;;;18.50;65.60;;;;;;10451310;28;20645;-61
2023/05/25 19:59:07;;;;;;;10.57;3.65;;;18.50;65.70;;;;;;10449412;28;20047;-60
2023/05/25 20:04:08;;;;;;;10.20;4.35;;;18.40;66.20;;;;;;10445412;28;20021;-61
2023/05/25 20:09:11;;;;;;;8.60;3.92;;;18.40;65.80;;;;;;10447081;28;20108;-60
2023/05/25 20:14:12;;;;;;;7.45;3.60;;;18.40;65.90;;;;;;10445417;28;20156;-61
2023/05/25 20:19:12;;;;;;;7.22;3.22;;;18.40;65.40;;;;;;10446651;28;20078;-61
2023/05/25 20:24:13;;;;;;;11.05;4.38;;;18.40;65.40;;;;;;10446364;28;20052;-61
2023/05/25 20:29:14;;;;;;;8.80;4.32;;;18.30;65.50;;;;;;10440484;28;20083;-61
2023/05/25 20:34:14;;;;;;;11.95;4.38;;;18.30;65.60;;;;;;10450039;28;20313;-61
2023/05/25 20:39:15;;;;;;;9.40;4.15;;;18.30;65.70;;;;;;10449775;28;20033;-61
2023/05/25 20:44:16;;;;;;;9.75;4.10;;;18.30;65.50;;;;;;10411007;28;20381;-61
2023/05/25 20:49:16;;;;;;;8.73;3.45;;;18.30;65.50;;;;;;10411311;28;20120;-62
2023/05/25 20:54:17;;;;;;;7.78;3.08;;;18.20;65.10;;;;;;10411034;28;20112;-62
2023/05/25 20:59:18;;;;;;;13.52;4.00;;;18.30;65.10;;;;;;10411024;28;20042;-61
2023/05/25 21:04:19;;;;;;;12.30;4.20;;;18.20;65.20;;;;;;10409405;28;20100;-61
2023/05/25 21:09:21;;;;;;;6.90;3.30;;;18.20;65.10;;;;;;10410386;28;20483;-61
2023/05/25 21:14:21;;;;;;;10.45;3.47;;;18.20;65.10;;;;;;10410280;28;20018;-61
2023/05/25 21:19:23;;;;;;;9.77;3.22;;;18.20;64.80;;;;;;10421974;28;20107;-61
2023/05/25 21:24:23;;;;;;;10.18;3.78;;;18.20;64.70;;;;;;10451180;28;20103;-61
2023/05/25 21:29:24;;;;;;;10.90;3.60;;;18.20;64.70;;;;;;10450654;28;20033;-61
2023/05/25 21:34:25;;;;;;;9.27;4.18;;;18.20;64.60;;;;;;10451267;28;20041;-61
2023/05/25 21:39:25;;;;;;;8.63;3.85;;;18.20;64.60;;;;;;10449253;28;20036;-61
2023/05/25 21:44:26;;;;;;;8.45;4.45;;;18.20;64.50;;;;;;10445140;28;20440;-61
2023/05/25 21:49:27;;;;;;;9.57;3.80;;;18.20;64.40;;;;;;10409010;28;20033;-61
2023/05/25 21:54:27;;;;;;;9.73;3.80;;;18.10;64.30;;;;;;10423000;28;20112;-61
2023/05/25 21:59:28;;;;;;;14.05;4.55;;;18.10;64.30;;;;;;10450357;28;20096;-61
2023/05/25 22:04:29;;;;;;;9.18;4.60;;;18.10;64.30;;;;;;10412012;28;20025;-61
2023/05/25 22:09:30;;;;;;;10.25;4.85;;;18.10;64.30;;;;;;10407666;28;20132;-61
2023/05/25 22:14:31;;;;;;;11.30;4.78;;;18.10;64.20;;;;;;10407632;28;20133;-61
2023/05/25 22:19:32;;;;;;;11.13;3.63;;;18.10;64.10;;;;;;10433363;28;20479;-61
2023/05/25 22:24:32;;;;;;;20.23;3.05;;;18.10;64.10;;;;;;10448319;28;20039;-61
2023/05/25 22:29:33;;;;;;;9.38;4.32;;;18.10;64.10;;;;;;10448797;28;20396;-61
2023/05/25 22:34:34;;;;;;;7.93;3.92;;;18.10;64.10;;;;;;10449156;28;20025;-61
2023/05/25 22:39:35;;;;;;;9.00;4.45;;;18.00;63.90;;;;;;10416362;28;20018;-61
2023/05/25 22:44:36;;;;;;;8.15;3.40;;;18.00;64.40;;;;;;10446096;28;20113;-61
2023/05/25 22:49:38;;;;;;;12.20;4.53;;;18.00;63.90;;;;;;10446532;28;20116;-61
2023/05/25 22:54:39;;;;;;;11.10;4.68;;;18.10;63.90;;;;;;10447389;28;20009;-61
2023/05/25 22:59:39;;;;;;;8.50;4.25;;;18.00;63.80;;;;;;10446551;28;20099;-61
2023/05/25 23:04:40;;;;;;;9.18;3.83;;;18.00;63.80;;;;;;10446014;28;20067;-61
2023/05/25 23:09:41;;;;;;;15.18;4.65;;;18.00;63.80;;;;;;10406519;28;20053;-61
2023/05/25 23:14:43;;;;;;;9.82;3.92;;;18.00;63.70;;;;;;10405754;28;20519;-61
2023/05/25 23:19:43;;;;;;;8.27;3.90;;;18.00;63.70;;;;;;10421542;28;20491;-61
2023/05/25 23:24:44;;;;;;;9.25;3.38;;;18.00;63.70;;;;;;10446193;28;20063;-61
2023/05/25 23:29:45;;;;;;;13.68;3.67;;;18.00;63.60;;;;;;10446531;28;20547;-62
2023/05/25 23:34:45;;;;;;;10.13;3.67;;;17.90;63.60;;;;;;10452853;28;20040;-61
2023/05/25 23:39:46;;;;;;;9.35;4.00;;;18.00;63.60;;;;;;10453134;28;20100;-62
2023/05/25 23:44:47;;;;;;;9.20;4.07;;;18.00;63.50;;;;;;10446350;28;20539;-61
2023/05/25 23:49:47;;;;;;;7.65;3.95;;;17.90;63.50;;;;;;10446025;28;20124;-61
2023/05/25 23:54:48;;;;;;;9.90;3.88;;;17.90;63.40;;;;;;10421928;28;20123;-61
2023/05/25 23:59:49;;;;;;;9.10;4.35;;;17.90;63.40;;;;;;10403554;28;20029;-62
